Darstellungsparameter: Aktuell verwendete Einstellungen:
Skalierung der Graphiken ... ?
xyx+y,   Skalierungsfaktor:      Skalierung: Modus: x, Faktor: 1
Darstellungszeitraum ... ?
Vom - - bis: - -   Zeitraum: 30.03.2020 - 05.04.2020
Min/Max/Avg-Anzeige ... ?
Zeige MMA aktuell
Zeige MMA Monat
Zeige MMA alles
Zeige --A aktuell
Zeige --A Monat
Zeige --A alles
Keine MMA-Anzeige
MMA:
Keine MMA-Graphiken
MMA-Basis: 30.03.2020 - 05.04.2020
Quicknavigation für Darstellung... ?
Tage:      1T, 2T, 3T, 5T -1T -2T -3T -5T +1T +2T +3T +5T
Wochen: 1W, 2W, 3W -1W -2W -3W +1W +2W +3W
Monate: 1M, 3M, 6M -1M -3M -6M +1M +3M +6M
Jahre:    1J, 3J, 5J, 10J -1J -3J -5J -10J +1J +3J +5J +10J
Nutze für die Darstellung ... ?
Originaldaten oder ...
Mittelwerte Minima Maxima auf...
Stundenbasis Tagesbasis Wochenbasis
Monatsbasis Jahresbasis      Datenbasis: Mittelwerte auf Stundenbasis
Darstellen als:
Statistik (Auto) Statistik J:M      Darstellung:
Zur Graphik,    zurück zur Übersicht aller Sensoren.
 
Tabellarische Datenbersicht: ?
 
Sensor: Nr:Datum:Temp:Feuchte:
Aussen-T/F 1 30-03-2020 00:00:00 1.71667 C 34.8333 %
2 30-03-2020 01:00:00 0.15 C 37.1667 %
3 30-03-2020 02:00:00 -1.35 C 38.8333 %
4 30-03-2020 03:00:00 -1.85 C 39.3333 %
5 30-03-2020 04:00:00 -2.25 C 39.0000 %
6 30-03-2020 05:00:00 -2.76667 C 38.1667 %
7 30-03-2020 06:00:00 -3.56667 C 39.0000 %
8 30-03-2020 07:00:00 -4 C 39.6667 %
9 30-03-2020 08:00:00 -3.66667 C 39.3333 %
10 30-03-2020 09:00:00 -2.51667 C 37.1667 %
11 30-03-2020 10:00:00 -0.83333 C 33.0000 %
12 30-03-2020 11:00:00 2.4 C 20.5000 %
13 30-03-2020 12:00:00 5.51667 C 20.0000 %
14 30-03-2020 13:00:00 6.33333 C 20.0000 %
15 30-03-2020 14:00:00 9.06667 C 20.0000 %
16 30-03-2020 15:00:00 12.26667 C 20.0000 %
17 30-03-2020 16:00:00 13.18333 C 20.0000 %
18 30-03-2020 17:00:00 11.73333 C 20.0000 %
19 30-03-2020 18:00:00 7.98333 C 20.0000 %
20 30-03-2020 19:00:00 6.33333 C 20.0000 %
21 30-03-2020 20:00:00 3.23333 C 29.8333 %
22 30-03-2020 21:00:00 4.15 C 29.6667 %
23 30-03-2020 22:00:00 3.93333 C 31.6667 %
24 30-03-2020 23:00:00 4.16667 C 30.8333 %
25 31-03-2020 00:00:00 4.25 C 30.6667 %
Sensor: Nr:Datum:Temp:Feuchte:
Aussen-T/F 26 31-03-2020 01:00:00 3.95 C 35.3333 %
27 31-03-2020 02:00:00 3.43333 C 39.3333 %
28 31-03-2020 03:00:00 2.4 C 42.1667 %
29 31-03-2020 04:00:00 3.15 C 41.6667 %
30 31-03-2020 05:00:00 2.65 C 42.5000 %
31 31-03-2020 06:00:00 1.76667 C 44.8333 %
32 31-03-2020 07:00:00 2.08333 C 44.6667 %
33 31-03-2020 08:00:00 3.35 C 41.5000 %
34 31-03-2020 09:00:00 4.03333 C 36.1667 %
35 31-03-2020 10:00:00 4.5 C 33.8333 %
36 31-03-2020 11:00:00 4.9 C 30.8333 %
37 31-03-2020 12:00:00 7.15 C 22.0000 %
38 31-03-2020 13:00:00 7.56667 C 20.0000 %
39 31-03-2020 14:00:00 10.95 C 20.0000 %
40 31-03-2020 15:00:00 13.38333 C 20.0000 %
41 31-03-2020 16:00:00 14.96667 C 20.0000 %
42 31-03-2020 17:00:00 14.45 C 20.0000 %
43 31-03-2020 18:00:00 9.76667 C 20.0000 %
44 31-03-2020 19:00:00 8.18333 C 20.0000 %
45 31-03-2020 20:00:00 4.91667 C 20.0000 %
46 31-03-2020 21:00:00 3.53333 C 21.0000 %
47 31-03-2020 22:00:00 2.4 C 26.3333 %
48 31-03-2020 23:00:00 1.41667 C 30.8333 %
49 01-04-2020 00:00:00 0.46667 C 33.1667 %
50 01-04-2020 01:00:00 -1.06667 C 37.0000 %
Sensor: Nr:Datum:Temp:Feuchte:
Aussen-T/F 51 01-04-2020 02:00:00 -2.18333 C 38.3333 %
52 01-04-2020 03:00:00 -2.76667 C 38.3333 %
53 01-04-2020 04:00:00 -3.25 C 38.6667 %
54 01-04-2020 05:00:00 -3.86667 C 39.8333 %
55 01-04-2020 06:00:00 -4.23333 C 40.5000 %
56 01-04-2020 07:00:00 -4.5 C 41.0000 %
57 01-04-2020 08:00:00 -3.83333 C 40.8333 %
58 01-04-2020 09:00:00 -2.46667 C 39.8333 %
59 01-04-2020 10:00:00 0.13333 C 38.5000 %
60 01-04-2020 11:00:00 4.31667 C 26.1667 %
61 01-04-2020 12:00:00 8.35 C 20.0000 %
62 01-04-2020 13:00:00 9.33333 C 20.0000 %
63 01-04-2020 14:00:00 13.35 C 20.0000 %
64 01-04-2020 15:00:00 17.03333 C 20.0000 %
65 01-04-2020 16:00:00 18.71667 C 20.0000 %
66 01-04-2020 17:00:00 17.23333 C 20.0000 %
67 01-04-2020 18:00:00 11.96667 C 20.0000 %
68 01-04-2020 19:00:00 10.08333 C 20.0000 %
69 01-04-2020 20:00:00 7.2 C 20.0000 %
70 01-04-2020 21:00:00 5.46667 C 20.1667 %
71 01-04-2020 22:00:00 3.03333 C 26.6667 %
72 01-04-2020 23:00:00 1.35 C 33.6667 %
73 02-04-2020 00:00:00 0.43333 C 36.0000 %
74 02-04-2020 01:00:00 -0.55 C 38.0000 %
75 02-04-2020 02:00:00 -1.26667 C 39.5000 %
Sensor: Nr:Datum:Temp:Feuchte:
Aussen-T/F 76 02-04-2020 03:00:00 -1.5 C 40.0000 %
77 02-04-2020 04:00:00 -2.08333 C 40.5000 %
78 02-04-2020 05:00:00 -2.6 C 41.0000 %
79 02-04-2020 06:00:00 -2.86667 C 41.8333 %
80 02-04-2020 07:00:00 -3.05 C 42.3333 %
81 02-04-2020 08:00:00 -2.23333 C 42.3333 %
82 02-04-2020 09:00:00 -1.06667 C 41.1667 %
83 02-04-2020 10:00:00 1.41667 C 39.8333 %
84 02-04-2020 11:00:00 5.78333 C 31.3333 %
85 02-04-2020 12:00:00 10.06667 C 22.0000 %
86 02-04-2020 13:00:00 11.71667 C 20.0000 %
87 02-04-2020 14:00:00 15.76667 C 20.0000 %
88 02-04-2020 15:00:00 19.15 C 20.0000 %
89 02-04-2020 16:00:00 18.53333 C 20.0000 %
90 02-04-2020 17:00:00 15.78333 C 20.0000 %
91 02-04-2020 18:00:00 11.91667 C 20.0000 %
92 02-04-2020 19:00:00 9.78333 C 20.0000 %
93 02-04-2020 20:00:00 7.8 C 21.0000 %
94 02-04-2020 21:00:00 5.86667 C 28.3333 %
95 02-04-2020 22:00:00 5.21667 C 30.5000 %
96 02-04-2020 23:00:00 4.41667 C 33.0000 %
97 03-04-2020 00:00:00 2.63333 C 38.8333 %
98 03-04-2020 01:00:00 2.48333 C 39.0000 %
99 03-04-2020 02:00:00 2.7 C 38.6667 %
100 03-04-2020 03:00:00 4.03333 C 37.0000 %
Sensor: Nr:Datum:Temp:Feuchte:
Aussen-T/F 101 03-04-2020 04:00:00 4.86667 C 35.5000 %
102 03-04-2020 05:00:00 4.81667 C 35.6667 %
103 03-04-2020 06:00:00 5.21667 C 35.1667 %
104 03-04-2020 07:00:00 5.61667 C 35.0000 %
105 03-04-2020 08:00:00 6.01667 C 35.0000 %
106 03-04-2020 09:00:00 7.63333 C 33.6667 %
107 03-04-2020 10:00:00 9.06667 C 32.0000 %
108 03-04-2020 11:00:00 11.11667 C 28.1667 %
109 03-04-2020 12:00:00 11.25 C 25.5000 %
110 03-04-2020 13:00:00 11.81667 C 23.1667 %
111 03-04-2020 14:00:00 11.71667 C 21.1667 %
112 03-04-2020 15:00:00 12.16667 C 20.0000 %
113 03-04-2020 16:00:00 12.41667 C 20.0000 %
114 03-04-2020 17:00:00 12.18333 C 20.0000 %
115 03-04-2020 18:00:00 11.35 C 20.0000 %
116 03-04-2020 19:00:00 10.4 C 20.0000 %
117 03-04-2020 20:00:00 9.36667 C 20.0000 %
118 03-04-2020 21:00:00 8.8 C 20.0000 %
119 03-04-2020 22:00:00 7.13333 C 23.3333 %
120 03-04-2020 23:00:00 5.65 C 27.3333 %
121 04-04-2020 00:00:00 4.66667 C 29.5000 %
122 04-04-2020 01:00:00 3.68333 C 32.5000 %
123 04-04-2020 02:00:00 1.13333 C 40.5000 %
124 04-04-2020 03:00:00 0.38333 C 42.5000 %
125 04-04-2020 04:00:00 -0.68333 C 43.8333 %
Sensor: Nr:Datum:Temp:Feuchte:
Aussen-T/F 126 04-04-2020 05:00:00 -1.11667 C 45.0000 %
127 04-04-2020 06:00:00 -1.53333 C 45.1667 %
128 04-04-2020 07:00:00 -1.7 C 45.3333 %
129 04-04-2020 08:00:00 -1.3 C 45.8333 %
130 04-04-2020 09:00:00 0.26667 C 44.5000 %
131 04-04-2020 10:00:00 2.73333 C 40.8333 %
132 04-04-2020 11:00:00 7.3 C 32.1667 %
133 04-04-2020 12:00:00 10.51667 C 22.3333 %
134 04-04-2020 13:00:00 11.81667 C 20.0000 %
135 04-04-2020 14:00:00 15.05 C 20.0000 %
136 04-04-2020 15:00:00 18.36667 C 20.0000 %
137 04-04-2020 16:00:00 19.68333 C 20.0000 %
138 04-04-2020 17:00:00 19.43333 C 20.0000 %
139 04-04-2020 18:00:00 15.75 C 20.0000 %
140 04-04-2020 19:00:00 13.55 C 20.0000 %
141 04-04-2020 20:00:00 10.13333 C 22.3333 %
142 04-04-2020 21:00:00 8.41667 C 24.8333 %
143 04-04-2020 22:00:00 5.08333 C 33.0000 %
144 04-04-2020 23:00:00 3.81667 C 35.3333 %
145 05-04-2020 00:00:00 2.68333 C 38.8333 %
146 05-04-2020 01:00:00 2.1 C 40.8333 %
147 05-04-2020 02:00:00 1.31667 C 42.6667 %
148 05-04-2020 03:00:00 0.88333 C 44.0000 %
149 05-04-2020 04:00:00 0.33333 C 45.6667 %
150 05-04-2020 05:00:00 -0.28333 C 46.5000 %
Sensor: Nr:Datum:Temp:Feuchte:
Aussen-T/F 151 05-04-2020 06:00:00 -0.65 C 47.1667 %
152 05-04-2020 07:00:00 -0.6 C 47.8333 %
153 05-04-2020 08:00:00 0.25 C 48.5000 %
154 05-04-2020 09:00:00 2.15 C 46.1667 %
155 05-04-2020 10:00:00 5.76667 C 39.8333 %
156 05-04-2020 11:00:00 12.05 C 26.5000 %
157 05-04-2020 12:00:00 16.76667 C 20.0000 %
158 05-04-2020 13:00:00 17.63333 C 20.0000 %
159 05-04-2020 14:00:00 20.85 C 20.0000 %
160 05-04-2020 15:00:00 25.43333 C 20.0000 %
161 05-04-2020 16:00:00 24.18333 C 20.0000 %
162 05-04-2020 17:00:00 24.66667 C 20.0000 %
163 05-04-2020 18:00:00 19.75 C 20.0000 %
164 05-04-2020 19:00:00 17.33333 C 20.0000 %
165 05-04-2020 20:00:00 13.48333 C 20.0000 %
166 05-04-2020 21:00:00 11.65 C 20.0000 %
167 05-04-2020 22:00:00 9 C 25.1667 %
168 05-04-2020 23:00:00 7.13333 C 29.8333 %
Sensor: Nr:Datum:Temp:Feuchte:
G-T/H 1 30-03-2020 00:00:00 9.58333 C 60.1667 %
2 30-03-2020 01:00:00 9.48333 C 60.8333 %
3 30-03-2020 02:00:00 9.36667 C 61.0000 %
4 30-03-2020 03:00:00 9.26667 C 61.0000 %
5 30-03-2020 04:00:00 9.15 C 60.3333 %
6 30-03-2020 05:00:00 9 C 60.0000 %
7 30-03-2020 06:00:00 8.86667 C 61.0000 %
8 30-03-2020 07:00:00 8.7 C 60.5000 %
9 30-03-2020 08:00:00 8.55 C 60.0000 %
10 30-03-2020 09:00:00 8.46667 C 60.0000 %
11 30-03-2020 10:00:00 8.33333 C 60.0000 %
12 30-03-2020 11:00:00 8.23333 C 60.0000 %
13 30-03-2020 12:00:00 8.2 C 60.0000 %
14 30-03-2020 13:00:00 8.03333 C 53.8333 %
15 30-03-2020 14:00:00 8.08333 C 53.8333 %
16 30-03-2020 15:00:00 8.16667 C 56.3333 %
17 30-03-2020 16:00:00 8.28333 C 57.5000 %
18 30-03-2020 17:00:00 8.36667 C 58.0000 %
19 30-03-2020 18:00:00 8.41667 C 59.0000 %
20 30-03-2020 19:00:00 8.48333 C 60.0000 %
21 30-03-2020 20:00:00 8.5 C 60.6667 %
22 30-03-2020 21:00:00 8.5 C 61.0000 %
23 30-03-2020 22:00:00 8.5 C 62.0000 %
24 30-03-2020 23:00:00 8.51667 C 62.0000 %
25 31-03-2020 00:00:00 8.51667 C 62.5000 %
Sensor: Nr:Datum:Temp:Feuchte:
G-T/H 26 31-03-2020 01:00:00 8.53333 C 63.0000 %
27 31-03-2020 02:00:00 8.5 C 63.0000 %
28 31-03-2020 03:00:00 8.5 C 64.0000 %
29 31-03-2020 04:00:00 8.5 C 64.0000 %
30 31-03-2020 05:00:00 8.5 C 64.0000 %
31 31-03-2020 06:00:00 8.46667 C 64.0000 %
32 31-03-2020 07:00:00 8.41667 C 64.3333 %
33 31-03-2020 08:00:00 8.4 C 65.0000 %
34 31-03-2020 09:00:00 8.4 C 65.0000 %
35 31-03-2020 10:00:00 8.4 C 64.6667 %
36 31-03-2020 11:00:00 8.4 C 64.0000 %
37 31-03-2020 12:00:00 8.43333 C 64.0000 %
38 31-03-2020 13:00:00 8.48333 C 63.3333 %
39 31-03-2020 14:00:00 8.51667 C 63.0000 %
40 31-03-2020 15:00:00 8.6 C 63.0000 %
41 31-03-2020 16:00:00 8.65 C 63.0000 %
42 31-03-2020 17:00:00 8.75 C 62.8333 %
43 31-03-2020 18:00:00 8.8 C 56.6667 %
44 31-03-2020 19:00:00 8.86667 C 58.5000 %
45 31-03-2020 20:00:00 8.9 C 60.5000 %
46 31-03-2020 21:00:00 8.88333 C 61.3333 %
47 31-03-2020 22:00:00 8.81667 C 62.0000 %
48 31-03-2020 23:00:00 8.8 C 62.0000 %
49 01-04-2020 00:00:00 8.75 C 62.0000 %
50 01-04-2020 01:00:00 8.68333 C 62.0000 %
Sensor: Nr:Datum:Temp:Feuchte:
G-T/H 51 01-04-2020 02:00:00 8.6 C 62.0000 %
52 01-04-2020 03:00:00 8.5 C 62.0000 %
53 01-04-2020 04:00:00 8.41667 C 62.0000 %
54 01-04-2020 05:00:00 8.28333 C 61.0000 %
55 01-04-2020 06:00:00 8.15 C 61.0000 %
56 01-04-2020 07:00:00 8.05 C 61.0000 %
57 01-04-2020 08:00:00 7.93333 C 61.6667 %
58 01-04-2020 09:00:00 7.85 C 62.0000 %
59 01-04-2020 10:00:00 7.8 C 62.0000 %
60 01-04-2020 11:00:00 7.75 C 62.3333 %
61 01-04-2020 12:00:00 7.75 C 63.0000 %
62 01-04-2020 13:00:00 7.78333 C 63.6667 %
63 01-04-2020 14:00:00 7.88333 C 64.0000 %
64 01-04-2020 15:00:00 7.98333 C 62.5000 %
65 01-04-2020 16:00:00 8.08333 C 63.0000 %
66 01-04-2020 17:00:00 8.18333 C 63.0000 %
67 01-04-2020 18:00:00 8.25 C 63.0000 %
68 01-04-2020 19:00:00 8.38333 C 63.6667 %
69 01-04-2020 20:00:00 8.45 C 64.0000 %
70 01-04-2020 21:00:00 8.48333 C 64.0000 %
71 01-04-2020 22:00:00 8.5 C 64.0000 %
72 01-04-2020 23:00:00 8.48333 C 64.0000 %
73 02-04-2020 00:00:00 8.43333 C 64.0000 %
74 02-04-2020 01:00:00 8.4 C 64.0000 %
75 02-04-2020 02:00:00 8.35 C 63.8333 %
Sensor: Nr:Datum:Temp:Feuchte:
G-T/H 76 02-04-2020 03:00:00 8.26667 C 63.0000 %
77 02-04-2020 04:00:00 8.2 C 63.0000 %
78 02-04-2020 05:00:00 8.11667 C 63.0000 %
79 02-04-2020 06:00:00 8.01667 C 62.8333 %
80 02-04-2020 07:00:00 7.93333 C 62.6667 %
81 02-04-2020 08:00:00 7.85 C 63.0000 %
82 02-04-2020 09:00:00 7.8 C 63.0000 %
83 02-04-2020 10:00:00 7.68333 C 63.1667 %
84 02-04-2020 11:00:00 7.66667 C 64.0000 %
85 02-04-2020 12:00:00 7.71667 C 64.8333 %
86 02-04-2020 13:00:00 7.8 C 65.0000 %
87 02-04-2020 14:00:00 7.93333 C 65.1667 %
88 02-04-2020 15:00:00 8.05 C 65.0000 %
89 02-04-2020 16:00:00 8.15 C 65.0000 %
90 02-04-2020 17:00:00 8.31667 C 65.0000 %
91 02-04-2020 18:00:00 8.43333 C 65.0000 %
92 02-04-2020 19:00:00 8.56667 C 65.5000 %
93 02-04-2020 20:00:00 8.6 C 66.0000 %
94 02-04-2020 21:00:00 8.68333 C 66.0000 %
95 02-04-2020 22:00:00 8.7 C 66.8333 %
96 02-04-2020 23:00:00 8.7 C 67.0000 %
97 03-04-2020 00:00:00 8.7 C 67.0000 %
98 03-04-2020 01:00:00 8.73333 C 66.8333 %
99 03-04-2020 02:00:00 8.7 C 66.0000 %
100 03-04-2020 03:00:00 8.7 C 66.3333 %
Sensor: Nr:Datum:Temp:Feuchte:
G-T/H 101 03-04-2020 04:00:00 8.7 C 67.0000 %
102 03-04-2020 05:00:00 8.7 C 67.0000 %
103 03-04-2020 06:00:00 8.66667 C 67.0000 %
104 03-04-2020 07:00:00 8.6 C 67.0000 %
105 03-04-2020 08:00:00 8.63333 C 67.0000 %
106 03-04-2020 09:00:00 8.7 C 67.0000 %
107 03-04-2020 10:00:00 8.7 C 68.0000 %
108 03-04-2020 11:00:00 8.73333 C 68.0000 %
109 03-04-2020 12:00:00 8.85 C 68.0000 %
110 03-04-2020 13:00:00 9.15 C 66.1667 %
111 03-04-2020 14:00:00 9.51667 C 61.6667 %
112 03-04-2020 15:00:00 9.71667 C 59.3333 %
113 03-04-2020 16:00:00 10 C 56.8333 %
114 03-04-2020 17:00:00 10.13333 C 54.3333 %
115 03-04-2020 18:00:00 10.15 C 53.1667 %
116 03-04-2020 19:00:00 10.11667 C 53.5000 %
117 03-04-2020 20:00:00 10.03333 C 51.3333 %
118 03-04-2020 21:00:00 9.86667 C 48.8333 %
119 03-04-2020 22:00:00 9.43333 C 47.1667 %
120 03-04-2020 23:00:00 9.01667 C 47.0000 %
121 04-04-2020 00:00:00 8.4 C 46.5000 %
122 04-04-2020 01:00:00 7.76667 C 47.1667 %
123 04-04-2020 02:00:00 6.76667 C 50.0000 %
124 04-04-2020 03:00:00 6 C 52.0000 %
125 04-04-2020 04:00:00 5.33333 C 53.0000 %
Sensor: Nr:Datum:Temp:Feuchte:
G-T/H 126 04-04-2020 05:00:00 4.76667 C 54.8333 %
127 04-04-2020 06:00:00 4.56667 C 55.0000 %
128 04-04-2020 07:00:00 4.35 C 55.0000 %
129 04-04-2020 08:00:00 4.3 C 55.6667 %
130 04-04-2020 09:00:00 4.45 C 57.3333 %
131 04-04-2020 10:00:00 5 C 58.8333 %
132 04-04-2020 11:00:00 6.16667 C 58.3333 %
133 04-04-2020 12:00:00 7.18333 C 56.8333 %
134 04-04-2020 13:00:00 7.85 C 54.5000 %
135 04-04-2020 14:00:00 8.08333 C 53.0000 %
136 04-04-2020 15:00:00 8.06667 C 55.0000 %
137 04-04-2020 16:00:00 8.21667 C 56.3333 %
138 04-04-2020 17:00:00 8.41667 C 57.5000 %
139 04-04-2020 18:00:00 8.7 C 57.5000 %
140 04-04-2020 19:00:00 8.83333 C 58.3333 %
141 04-04-2020 20:00:00 8.93333 C 59.0000 %
142 04-04-2020 21:00:00 9 C 59.0000 %
143 04-04-2020 22:00:00 9.06667 C 59.6667 %
144 04-04-2020 23:00:00 9.1 C 60.0000 %
145 05-04-2020 00:00:00 9.13333 C 60.0000 %
146 05-04-2020 01:00:00 9.15 C 60.0000 %
147 05-04-2020 02:00:00 9.1 C 60.0000 %
148 05-04-2020 03:00:00 9.1 C 60.3333 %
149 05-04-2020 04:00:00 9.01667 C 61.0000 %
150 05-04-2020 05:00:00 8.98333 C 60.8333 %
Sensor: Nr:Datum:Temp:Feuchte:
G-T/H 151 05-04-2020 06:00:00 8.9 C 61.0000 %
152 05-04-2020 07:00:00 8.83333 C 61.0000 %
153 05-04-2020 08:00:00 8.8 C 61.0000 %
154 05-04-2020 09:00:00 8.76667 C 61.0000 %
155 05-04-2020 10:00:00 8.78333 C 62.0000 %
156 05-04-2020 11:00:00 8.73333 C 62.0000 %
157 05-04-2020 12:00:00 8.78333 C 62.0000 %
158 05-04-2020 13:00:00 8.85 C 62.0000 %
159 05-04-2020 14:00:00 9 C 62.0000 %
160 05-04-2020 15:00:00 9.16667 C 62.0000 %
161 05-04-2020 16:00:00 9.31667 C 62.0000 %
162 05-04-2020 17:00:00 9.48333 C 62.5000 %
163 05-04-2020 18:00:00 9.63333 C 63.0000 %
164 05-04-2020 19:00:00 9.78333 C 63.0000 %
165 05-04-2020 20:00:00 9.86667 C 64.0000 %
166 05-04-2020 21:00:00 9.98333 C 63.1667 %
167 05-04-2020 22:00:00 10 C 63.5000 %
168 05-04-2020 23:00:00 10.1 C 64.0000 %

Maximal/Minimal-Werte vom 30.03.2020 - 05.04.2020

Sensor Min Max Avg
Temp
(Aussen-T/F)
-4.7 °C
01-04-2020  07:11:19
26.9 °C
05-04-2020  15:11:18
6.1 °C
Feuchte
(Aussen-T/F)
20 %
30-03-2020  11:10:18
49 %
05-04-2020  08:11:17
30.49 %
Temp
(G-T/H)
4.2 °C
04-04-2020  07:31:18
10.2 °C
03-04-2020  17:41:17
8.44 °C
Feuchte
(G-T/H)
46 %
04-04-2020  00:31:17
68 %
03-04-2020  10:01:18
61.13 %

Die Daten stammen von einer Davis Vantage Pro 2 Wetter-Station und werden unter Linux mit der Software wview2wettercgi und aufbereitet. Alle Angaben erfolgen ohne Gewähr für ihre Vollständigkeit oder Richtigkeit.
Kontakt: Rainer Krienke krienke@uni-koblenz.de . Meine Webseiten an der Uni Koblenz oder privat.
Version: $Revision: 0.78 $